RYR94XU LICJ-LFOB
Flight info
| Callsign | RYR94XU |
|---|---|
| Flight time | N/A |
| Altitude | 36000 |
| Route | GIANO DCT POKAV DCT KISTO DCT KONER DCT TIDKA DCT UNITA DCT AOSTA DCT ORSUD DCT MOLUS DCT UNKIR DCT GIVRI DCT TINIL |
| Aircraft | B738/M-SDE2E3FGHIRWXY/LB1 |
Departure
| Time | 2026-04-30 08:07 |
|---|---|
| Airport | Falcone–Borsellino Airport (LICJ) |
Arrival
| Time | N/A |
|---|---|
| Airport | Beauvais-Tillé airport (LFOB) |
| Time | Latitude | Longitude | Altitude | Speed | Heading |
|---|---|---|---|---|---|
| 2026-04-30 07:50 | 38.18371 | 13.10208 | 41 ft | 0 kts | 247° |
| 2026-04-30 08:03 | 38.18365 | 13.10189 | 41 ft | 7 kts | 247° |
| 2026-04-30 08:03 | 38.18232 | 13.10128 | 41 ft | 13 kts | 157° |
| 2026-04-30 08:03 | 38.18157 | 13.10183 | 41 ft | 13 kts | 99° |
| 2026-04-30 08:04 | 38.18200 | 13.10330 | 41 ft | 24 kts | 67° |
| 2026-04-30 08:04 | 38.18275 | 13.10553 | 41 ft | 27 kts | 67° |
| 2026-04-30 08:04 | 38.18350 | 13.10771 | 41 ft | 29 kts | 66° |
| 2026-04-30 08:04 | 38.18443 | 13.11047 | 41 ft | 38 kts | 67° |
| 2026-04-30 08:05 | 38.18541 | 13.11344 | 41 ft | 35 kts | 66° |
| 2026-04-30 08:05 | 38.18629 | 13.11611 | 41 ft | 23 kts | 85° |
| 2026-04-30 08:05 | 38.18599 | 13.11805 | 41 ft | 22 kts | 101° |
| 2026-04-30 08:05 | 38.18513 | 13.11877 | 41 ft | 13 kts | 250° |
| 2026-04-30 08:06 | 38.18479 | 13.11771 | 41 ft | 15 kts | 247° |
| 2026-04-30 08:06 | 38.18384 | 13.11488 | 41 ft | 69 kts | 246° |
| 2026-04-30 08:06 | 38.18091 | 13.10620 | 42 ft | 139 kts | 246° |
| 2026-04-30 08:06 | 38.17655 | 13.09332 | 329 ft | 173 kts | 246° |
| 2026-04-30 08:07 | 38.17191 | 13.07938 | 1293 ft | 166 kts | 246° |
| 2026-04-30 08:07 | 38.16752 | 13.06604 | 2247 ft | 164 kts | 246° |
| 2026-04-30 08:07 | 38.16288 | 13.05239 | 2895 ft | 172 kts | 245° |
| 2026-04-30 08:07 | 38.15810 | 13.03823 | 3566 ft | 177 kts | 247° |
| 2026-04-30 08:08 | 38.15731 | 13.02258 | 4263 ft | 184 kts | 281° |
| 2026-04-30 08:08 | 38.16224 | 13.00698 | 4823 ft | 199 kts | 293° |
| 2026-04-30 08:08 | 38.16961 | 12.99079 | 5151 ft | 224 kts | 300° |
| 2026-04-30 08:08 | 38.17871 | 12.97337 | 5477 ft | 248 kts | 302° |
| 2026-04-30 08:09 | 38.18904 | 12.95466 | 5983 ft | 267 kts | 303° |
| 2026-04-30 08:09 | 38.20004 | 12.93501 | 6658 ft | 277 kts | 303° |
| 2026-04-30 08:09 | 38.21136 | 12.91491 | 7474 ft | 282 kts | 303° |
| 2026-04-30 08:09 | 38.22287 | 12.89455 | 8304 ft | 285 kts | 303° |
| 2026-04-30 08:10 | 38.23453 | 12.87391 | 9128 ft | 289 kts | 303° |
| 2026-04-30 08:10 | 38.24610 | 12.85343 | 9987 ft | 289 kts | 303° |
| 2026-04-30 08:10 | 38.25790 | 12.83251 | 10827 ft | 292 kts | 303° |
| 2026-04-30 08:10 | 38.26996 | 12.81103 | 11363 ft | 306 kts | 303° |
| 2026-04-30 08:11 | 38.28267 | 12.78829 | 11708 ft | 325 kts | 303° |
| 2026-04-30 08:11 | 38.29659 | 12.76474 | 12126 ft | 340 kts | 307° |
| 2026-04-30 08:11 | 38.31395 | 12.74380 | 12755 ft | 350 kts | 326° |
| 2026-04-30 08:11 | 38.33685 | 12.73252 | 13495 ft | 358 kts | 345° |
| 2026-04-30 08:12 | 38.36169 | 12.72790 | 14218 ft | 363 kts | 349° |
| 2026-04-30 08:12 | 38.38654 | 12.72142 | 14933 ft | 365 kts | 342° |
| 2026-04-30 08:12 | 38.41076 | 12.71159 | 15638 ft | 366 kts | 337° |
| 2026-04-30 08:12 | 38.43437 | 12.69925 | 16325 ft | 368 kts | 333° |
| 2026-04-30 08:13 | 38.45782 | 12.68566 | 16985 ft | 371 kts | 332° |
| 2026-04-30 08:13 | 38.48139 | 12.67179 | 17636 ft | 374 kts | 332° |
| 2026-04-30 08:13 | 38.50512 | 12.65797 | 18275 ft | 377 kts | 332° |
| 2026-04-30 08:13 | 38.52913 | 12.64404 | 18900 ft | 380 kts | 332° |
| 2026-04-30 08:14 | 38.55333 | 12.63005 | 19517 ft | 383 kts | 332° |
| 2026-04-30 08:14 | 38.57739 | 12.61622 | 20110 ft | 386 kts | 333° |
| 2026-04-30 08:14 | 38.60204 | 12.60224 | 20685 ft | 388 kts | 333° |
| 2026-04-30 08:14 | 38.62680 | 12.58809 | 21247 ft | 391 kts | 332° |
| 2026-04-30 08:15 | 38.65161 | 12.57383 | 21792 ft | 394 kts | 332° |
| 2026-04-30 08:15 | 38.67679 | 12.55932 | 22310 ft | 397 kts | 332° |
| 2026-04-30 08:15 | 38.70205 | 12.54472 | 22834 ft | 399 kts | 332° |
| 2026-04-30 08:15 | 38.72744 | 12.53004 | 23334 ft | 401 kts | 332° |
| 2026-04-30 08:16 | 38.75300 | 12.51525 | 23806 ft | 404 kts | 332° |
| 2026-04-30 08:16 | 38.77871 | 12.50035 | 24298 ft | 406 kts | 332° |
| 2026-04-30 08:16 | 38.80456 | 12.48537 | 24758 ft | 409 kts | 332° |
| 2026-04-30 08:16 | 38.83057 | 12.47030 | 25185 ft | 412 kts | 332° |
| 2026-04-30 08:17 | 38.85679 | 12.45511 | 25588 ft | 415 kts | 332° |
| 2026-04-30 08:17 | 38.88329 | 12.43981 | 25979 ft | 419 kts | 333° |
| 2026-04-30 08:17 | 38.91031 | 12.42545 | 26369 ft | 422 kts | 334° |
| 2026-04-30 08:17 | 38.93777 | 12.41159 | 26766 ft | 425 kts | 335° |
| 2026-04-30 08:18 | 38.96528 | 12.39765 | 27148 ft | 427 kts | 334° |
| 2026-04-30 08:18 | 38.99295 | 12.38350 | 27522 ft | 429 kts | 334° |
| 2026-04-30 08:18 | 39.02078 | 12.36917 | 27869 ft | 432 kts | 334° |
| 2026-04-30 08:18 | 39.04873 | 12.35476 | 28256 ft | 433 kts | 334° |
| 2026-04-30 08:19 | 39.07644 | 12.34039 | 28594 ft | 435 kts | 334° |
| 2026-04-30 08:19 | 39.10463 | 12.32575 | 28922 ft | 438 kts | 334° |
| 2026-04-30 08:19 | 39.13290 | 12.31104 | 29244 ft | 440 kts | 334° |
| 2026-04-30 08:19 | 39.16136 | 12.29621 | 29594 ft | 441 kts | 334° |
| 2026-04-30 08:20 | 39.18977 | 12.28142 | 30024 ft | 439 kts | 334° |
| 2026-04-30 08:20 | 39.21799 | 12.26687 | 30495 ft | 437 kts | 334° |
| 2026-04-30 08:20 | 39.24621 | 12.25226 | 30908 ft | 436 kts | 334° |
| 2026-04-30 08:20 | 39.27436 | 12.23764 | 31301 ft | 435 kts | 334° |
| 2026-04-30 08:21 | 39.30237 | 12.22305 | 31688 ft | 434 kts | 334° |
| 2026-04-30 08:21 | 39.33028 | 12.20849 | 32093 ft | 432 kts | 334° |
| 2026-04-30 08:21 | 39.35807 | 12.19395 | 32522 ft | 430 kts | 334° |
| 2026-04-30 08:21 | 39.38580 | 12.17945 | 32837 ft | 430 kts | 334° |
| 2026-04-30 08:22 | 39.41358 | 12.16491 | 33173 ft | 430 kts | 334° |
| 2026-04-30 08:22 | 39.44125 | 12.15041 | 33553 ft | 428 kts | 334° |
| 2026-04-30 08:22 | 39.46884 | 12.13593 | 33905 ft | 427 kts | 334° |
| 2026-04-30 08:22 | 39.49646 | 12.12142 | 34199 ft | 428 kts | 334° |
| 2026-04-30 08:23 | 39.52392 | 12.10698 | 34540 ft | 426 kts | 334° |
| 2026-04-30 08:23 | 39.55140 | 12.09253 | 34880 ft | 425 kts | 334° |
| 2026-04-30 08:23 | 39.57883 | 12.07808 | 35181 ft | 425 kts | 334° |
| 2026-04-30 08:23 | 39.60611 | 12.06370 | 35495 ft | 424 kts | 334° |
| 2026-04-30 08:24 | 39.63352 | 12.04924 | 35772 ft | 424 kts | 334° |
| 2026-04-30 08:24 | 39.66075 | 12.03486 | 36038 ft | 424 kts | 334° |
| 2026-04-30 08:24 | 39.68821 | 12.02035 | 36067 ft | 427 kts | 334° |
| 2026-04-30 08:25 | 39.74316 | 11.99127 | 36075 ft | 425 kts | 334° |
| 2026-04-30 08:25 | 39.79764 | 11.96239 | 36075 ft | 422 kts | 334° |
| 2026-04-30 08:26 | 39.85169 | 11.93368 | 36075 ft | 423 kts | 334° |
| 2026-04-30 08:26 | 39.90620 | 11.90468 | 36076 ft | 423 kts | 334° |
| 2026-04-30 08:27 | 39.96060 | 11.87570 | 36077 ft | 423 kts | 334° |
| 2026-04-30 08:27 | 40.01521 | 11.84655 | 36078 ft | 423 kts | 334° |
| 2026-04-30 08:28 | 40.06963 | 11.81745 | 36078 ft | 423 kts | 334° |
| 2026-04-30 08:28 | 40.12406 | 11.78830 | 36079 ft | 423 kts | 334° |
| 2026-04-30 08:29 | 40.17850 | 11.75909 | 36080 ft | 422 kts | 334° |
| 2026-04-30 08:29 | 40.23287 | 11.72986 | 36080 ft | 422 kts | 334° |
| 2026-04-30 08:30 | 40.28727 | 11.70057 | 36081 ft | 423 kts | 334° |
| 2026-04-30 08:30 | 40.34136 | 11.67140 | 36082 ft | 422 kts | 334° |
| 2026-04-30 08:31 | 40.39573 | 11.64202 | 36082 ft | 422 kts | 334° |
| 2026-04-30 08:31 | 40.45009 | 11.61260 | 36083 ft | 422 kts | 334° |
| 2026-04-30 08:32 | 40.50440 | 11.58314 | 36084 ft | 423 kts | 334° |
| 2026-04-30 08:32 | 40.55879 | 11.55373 | 36084 ft | 423 kts | 334° |
| 2026-04-30 08:33 | 40.61331 | 11.52414 | 36085 ft | 423 kts | 334° |
| 2026-04-30 08:33 | 40.66759 | 11.49452 | 36091 ft | 423 kts | 334° |
| 2026-04-30 08:34 | 40.72199 | 11.46474 | 36099 ft | 423 kts | 334° |
| 2026-04-30 08:34 | 40.77633 | 11.43495 | 36100 ft | 423 kts | 334° |
| 2026-04-30 08:35 | 40.83075 | 11.40510 | 36101 ft | 423 kts | 334° |
| 2026-04-30 08:35 | 40.88398 | 11.37239 | 36102 ft | 421 kts | 329° |
| 2026-04-30 08:36 | 40.93566 | 11.33705 | 36109 ft | 421 kts | 329° |
| 2026-04-30 08:36 | 40.98778 | 11.30171 | 36116 ft | 421 kts | 330° |
| 2026-04-30 08:37 | 41.04003 | 11.26647 | 36117 ft | 421 kts | 330° |
| 2026-04-30 08:37 | 41.09229 | 11.23126 | 36119 ft | 421 kts | 330° |
| 2026-04-30 08:38 | 41.14371 | 11.19660 | 36120 ft | 421 kts | 330° |
| 2026-04-30 08:38 | 41.19692 | 11.16115 | 36120 ft | 421 kts | 330° |
| 2026-04-30 08:39 | 41.24892 | 11.12629 | 36121 ft | 421 kts | 330° |
| 2026-04-30 08:39 | 41.30118 | 11.09109 | 36120 ft | 421 kts | 330° |
| 2026-04-30 08:40 | 41.35348 | 11.05578 | 36122 ft | 421 kts | 330° |
| 2026-04-30 08:40 | 41.40573 | 11.02041 | 36126 ft | 421 kts | 330° |
| 2026-04-30 08:41 | 41.45802 | 10.98495 | 36126 ft | 421 kts | 330° |
| 2026-04-30 08:41 | 41.50985 | 10.94973 | 36134 ft | 421 kts | 330° |
| 2026-04-30 08:42 | 41.56212 | 10.91414 | 36140 ft | 422 kts | 330° |
| 2026-04-30 08:42 | 41.61430 | 10.87855 | 36137 ft | 421 kts | 330° |
| 2026-04-30 08:43 | 41.65772 | 10.84889 | 36136 ft | 421 kts | 330° |
| 2026-04-30 08:43 | 41.70991 | 10.81318 | 36131 ft | 421 kts | 330° |
| 2026-04-30 08:44 | 41.76152 | 10.77780 | 36132 ft | 421 kts | 330° |
| 2026-04-30 08:44 | 41.81432 | 10.74153 | 36136 ft | 422 kts | 330° |
| 2026-04-30 08:45 | 41.86314 | 10.70793 | 36140 ft | 422 kts | 330° |
| 2026-04-30 08:45 | 41.91533 | 10.67196 | 36142 ft | 422 kts | 330° |
| 2026-04-30 08:46 | 41.96722 | 10.63613 | 36146 ft | 422 kts | 330° |
| 2026-04-30 08:46 | 42.01972 | 10.59980 | 36150 ft | 421 kts | 330° |
| 2026-04-30 08:47 | 42.07172 | 10.56397 | 36149 ft | 419 kts | 330° |
| 2026-04-30 08:47 | 42.12328 | 10.52823 | 36150 ft | 420 kts | 330° |
| 2026-04-30 08:48 | 42.17524 | 10.49201 | 36152 ft | 420 kts | 330° |
| 2026-04-30 08:48 | 42.22713 | 10.45574 | 36154 ft | 420 kts | 330° |
| 2026-04-30 08:49 | 42.27902 | 10.41942 | 36155 ft | 420 kts | 330° |
| 2026-04-30 08:49 | 42.33088 | 10.38310 | 36157 ft | 420 kts | 330° |
| 2026-04-30 08:50 | 42.38254 | 10.34633 | 36164 ft | 420 kts | 330° |
| 2026-04-30 08:50 | 42.43413 | 10.30945 | 36167 ft | 419 kts | 330° |
| 2026-04-30 08:51 | 42.48567 | 10.27251 | 36167 ft | 419 kts | 330° |
| 2026-04-30 08:51 | 42.53684 | 10.23577 | 36168 ft | 418 kts | 330° |
| 2026-04-30 08:52 | 42.58832 | 10.19872 | 36170 ft | 418 kts | 330° |
| 2026-04-30 08:52 | 42.63963 | 10.16181 | 36170 ft | 417 kts | 330° |
| 2026-04-30 08:53 | 42.69107 | 10.12513 | 36170 ft | 416 kts | 330° |
| 2026-04-30 08:53 | 42.74230 | 10.08834 | 36171 ft | 416 kts | 330° |
| 2026-04-30 08:54 | 42.79349 | 10.05141 | 36171 ft | 415 kts | 329° |
| 2026-04-30 08:54 | 42.84445 | 10.01455 | 36171 ft | 415 kts | 329° |
| 2026-04-30 08:55 | 42.89540 | 9.97761 | 36171 ft | 415 kts | 330° |
| 2026-04-30 08:55 | 42.94610 | 9.94077 | 36172 ft | 415 kts | 330° |
| 2026-04-30 08:56 | 42.99698 | 9.90374 | 36172 ft | 414 kts | 330° |
| 2026-04-30 08:56 | 43.04778 | 9.86669 | 36171 ft | 414 kts | 329° |
| 2026-04-30 08:57 | 43.09850 | 9.82962 | 36173 ft | 412 kts | 329° |
| 2026-04-30 08:57 | 43.14903 | 9.79263 | 36173 ft | 412 kts | 329° |
| 2026-04-30 08:58 | 43.19927 | 9.75578 | 36173 ft | 411 kts | 329° |
| 2026-04-30 08:58 | 43.24975 | 9.71894 | 36173 ft | 410 kts | 329° |
| 2026-04-30 08:59 | 43.30005 | 9.68197 | 36174 ft | 409 kts | 329° |
| 2026-04-30 08:59 | 43.35028 | 9.64484 | 36174 ft | 410 kts | 329° |
| 2026-04-30 09:00 | 43.40049 | 9.60762 | 36175 ft | 409 kts | 329° |
| 2026-04-30 09:00 | 43.45054 | 9.57047 | 36176 ft | 408 kts | 329° |
| 2026-04-30 09:01 | 43.49999 | 9.53222 | 36175 ft | 406 kts | 324° |
| 2026-04-30 09:01 | 43.54481 | 9.48500 | 36176 ft | 405 kts | 319° |
| 2026-04-30 09:02 | 43.61007 | 9.41072 | 36164 ft | 405 kts | 319° |
| 2026-04-30 09:02 | 43.65341 | 9.36098 | 36163 ft | 405 kts | 319° |
| 2026-04-30 09:03 | 43.69679 | 9.31106 | 36166 ft | 406 kts | 319° |
| 2026-04-30 09:03 | 43.73993 | 9.26132 | 36167 ft | 406 kts | 319° |
| 2026-04-30 09:04 | 43.78335 | 9.21126 | 36169 ft | 406 kts | 319° |
| 2026-04-30 09:04 | 43.82665 | 9.16095 | 36171 ft | 407 kts | 319° |
| 2026-04-30 09:05 | 43.87026 | 9.11077 | 36174 ft | 407 kts | 319° |
| 2026-04-30 09:05 | 43.91366 | 9.06035 | 36176 ft | 407 kts | 319° |
| 2026-04-30 09:06 | 43.95845 | 9.01188 | 36180 ft | 409 kts | 324° |
| 2026-04-30 09:06 | 44.00621 | 8.96997 | 36185 ft | 409 kts | 326° |
| 2026-04-30 09:07 | 44.05018 | 8.93170 | 36186 ft | 405 kts | 326° |
| 2026-04-30 09:07 | 44.09777 | 8.88999 | 36192 ft | 405 kts | 326° |
| 2026-04-30 09:08 | 44.14540 | 8.84804 | 36197 ft | 406 kts | 326° |
| 2026-04-30 09:08 | 44.19298 | 8.80602 | 36199 ft | 405 kts | 325° |
| 2026-04-30 09:09 | 44.24064 | 8.76391 | 36200 ft | 405 kts | 326° |
| 2026-04-30 09:09 | 44.28850 | 8.72207 | 36201 ft | 405 kts | 326° |
| 2026-04-30 09:10 | 44.33629 | 8.67996 | 36201 ft | 406 kts | 326° |
| 2026-04-30 09:10 | 44.38407 | 8.63766 | 36202 ft | 406 kts | 325° |
| 2026-04-30 09:11 | 44.43156 | 8.59549 | 36204 ft | 406 kts | 325° |
| 2026-04-30 09:11 | 44.47925 | 8.55303 | 36209 ft | 406 kts | 325° |
| 2026-04-30 09:12 | 44.52693 | 8.51050 | 36213 ft | 405 kts | 325° |
| 2026-04-30 09:12 | 44.57444 | 8.46801 | 36212 ft | 405 kts | 325° |
| 2026-04-30 09:13 | 44.62161 | 8.42575 | 36218 ft | 405 kts | 325° |
| 2026-04-30 09:13 | 44.66892 | 8.38329 | 36225 ft | 405 kts | 325° |
| 2026-04-30 09:14 | 44.71639 | 8.34060 | 36233 ft | 405 kts | 325° |
| 2026-04-30 09:14 | 44.76383 | 8.29784 | 36248 ft | 404 kts | 325° |
| 2026-04-30 09:15 | 44.81112 | 8.25514 | 36269 ft | 404 kts | 325° |
| 2026-04-30 09:15 | 44.85818 | 8.21255 | 36280 ft | 403 kts | 325° |
| 2026-04-30 09:16 | 44.90526 | 8.16986 | 36286 ft | 402 kts | 325° |
| 2026-04-30 09:16 | 44.95215 | 8.12727 | 36288 ft | 402 kts | 325° |
| 2026-04-30 09:17 | 44.99536 | 8.08795 | 36290 ft | 401 kts | 325° |
| 2026-04-30 09:17 | 45.04217 | 8.04527 | 36293 ft | 401 kts | 325° |
| 2026-04-30 09:18 | 45.08852 | 8.00292 | 36297 ft | 400 kts | 325° |
| 2026-04-30 09:18 | 45.13471 | 7.96064 | 36300 ft | 401 kts | 325° |
| 2026-04-30 09:19 | 45.18191 | 7.91735 | 36303 ft | 401 kts | 324° |
| 2026-04-30 09:19 | 45.22863 | 7.87441 | 36308 ft | 400 kts | 324° |
| 2026-04-30 09:20 | 45.27525 | 7.83148 | 36315 ft | 399 kts | 324° |
| 2026-04-30 09:20 | 45.32092 | 7.78933 | 36315 ft | 399 kts | 324° |
| 2026-04-30 09:21 | 45.36743 | 7.74633 | 36315 ft | 398 kts | 324° |
| 2026-04-30 09:21 | 45.41389 | 7.70329 | 36311 ft | 399 kts | 324° |
| 2026-04-30 09:22 | 45.46092 | 7.65959 | 36309 ft | 409 kts | 326° |
| 2026-04-30 09:22 | 45.50591 | 7.61775 | 36311 ft | 419 kts | 326° |
| 2026-04-30 09:23 | 45.55500 | 7.57239 | 36304 ft | 420 kts | 327° |
| 2026-04-30 09:23 | 45.60384 | 7.52687 | 36297 ft | 418 kts | 327° |
| 2026-04-30 09:24 | 45.65250 | 7.48121 | 36291 ft | 419 kts | 326° |
| 2026-04-30 09:24 | 45.70121 | 7.43538 | 36289 ft | 419 kts | 326° |
| 2026-04-30 09:25 | 45.74984 | 7.38955 | 36289 ft | 419 kts | 326° |
| 2026-04-30 09:25 | 45.79817 | 7.34396 | 36288 ft | 419 kts | 326° |
| 2026-04-30 09:26 | 45.84583 | 7.29613 | 36283 ft | 418 kts | 324° |
| 2026-04-30 09:26 | 45.89331 | 7.24777 | 36275 ft | 418 kts | 324° |
| 2026-04-30 09:27 | 45.94076 | 7.19958 | 36263 ft | 418 kts | 324° |
| 2026-04-30 09:27 | 45.98815 | 7.15112 | 36249 ft | 419 kts | 324° |
| 2026-04-30 09:28 | 46.02789 | 7.11024 | 36238 ft | 420 kts | 324° |
| 2026-04-30 09:28 | 46.07529 | 7.06138 | 36228 ft | 422 kts | 325° |
| 2026-04-30 09:29 | 46.12299 | 7.01212 | 36221 ft | 421 kts | 325° |
| 2026-04-30 09:29 | 46.17051 | 6.96294 | 36220 ft | 421 kts | 325° |
| 2026-04-30 09:30 | 46.21840 | 6.91414 | 36218 ft | 421 kts | 325° |
| 2026-04-30 09:30 | 46.26609 | 6.86490 | 36216 ft | 421 kts | 324° |
| 2026-04-30 09:31 | 46.31365 | 6.81537 | 36219 ft | 421 kts | 324° |
| 2026-04-30 09:31 | 46.36115 | 6.76574 | 36225 ft | 422 kts | 324° |
| 2026-04-30 09:32 | 46.40784 | 6.71686 | 36229 ft | 422 kts | 324° |
| 2026-04-30 09:32 | 46.44955 | 6.65737 | 36233 ft | 423 kts | 308° |
| 2026-04-30 09:33 | 46.48142 | 6.58550 | 36231 ft | 423 kts | 301° |
| 2026-04-30 09:33 | 46.51041 | 6.51129 | 36231 ft | 422 kts | 301° |
| 2026-04-30 09:34 | 46.53946 | 6.43699 | 36231 ft | 422 kts | 301° |
| 2026-04-30 09:34 | 46.56845 | 6.36282 | 36230 ft | 422 kts | 300° |
| 2026-04-30 09:35 | 46.59693 | 6.28988 | 36229 ft | 422 kts | 300° |
| 2026-04-30 09:35 | 46.62662 | 6.21455 | 36219 ft | 422 kts | 301° |
| 2026-04-30 09:36 | 46.65588 | 6.14057 | 36211 ft | 422 kts | 301° |
| 2026-04-30 09:36 | 46.68513 | 6.06691 | 36207 ft | 423 kts | 301° |
| 2026-04-30 09:37 | 46.71414 | 5.99217 | 36204 ft | 425 kts | 300° |
| 2026-04-30 09:37 | 46.74309 | 5.91703 | 36200 ft | 425 kts | 300° |
| 2026-04-30 09:38 | 46.77200 | 5.84174 | 36194 ft | 426 kts | 300° |
| 2026-04-30 09:38 | 46.80178 | 5.76694 | 36183 ft | 426 kts | 307° |
| 2026-04-30 09:39 | 46.84443 | 5.70739 | 36185 ft | 426 kts | 326° |
| 2026-04-30 09:39 | 46.89477 | 5.66329 | 36179 ft | 426 kts | 332° |
| 2026-04-30 09:40 | 46.94691 | 5.62157 | 36176 ft | 428 kts | 332° |
| 2026-04-30 09:40 | 46.99902 | 5.57957 | 36173 ft | 428 kts | 332° |
| 2026-04-30 09:41 | 47.05124 | 5.53800 | 36172 ft | 421 kts | 332° |
| 2026-04-30 09:41 | 47.07637 | 5.51777 | 36166 ft | 408 kts | 332° |
| 2026-04-30 09:41 | 47.10101 | 5.49782 | 36119 ft | 397 kts | 332° |
| 2026-04-30 09:42 | 47.12515 | 5.47820 | 35521 ft | 399 kts | 332° |
| 2026-04-30 09:42 | 47.14931 | 5.45854 | 34600 ft | 411 kts | 332° |
| 2026-04-30 09:42 | 47.17445 | 5.43803 | 33950 ft | 415 kts | 332° |
| 2026-04-30 09:42 | 47.19965 | 5.41747 | 33506 ft | 413 kts | 333° |
| 2026-04-30 09:43 | 47.22464 | 5.39707 | 33109 ft | 410 kts | 333° |
| 2026-04-30 09:43 | 47.24950 | 5.37675 | 32683 ft | 407 kts | 333° |
| 2026-04-30 09:43 | 47.27416 | 5.35662 | 32262 ft | 405 kts | 333° |
| 2026-04-30 09:43 | 47.29872 | 5.33651 | 31845 ft | 403 kts | 333° |
| 2026-04-30 09:44 | 47.32328 | 5.31674 | 31425 ft | 401 kts | 334° |
| 2026-04-30 09:44 | 47.34767 | 5.29707 | 31017 ft | 399 kts | 333° |
| 2026-04-30 09:44 | 47.37197 | 5.27731 | 30614 ft | 397 kts | 333° |
| 2026-04-30 09:44 | 47.39574 | 5.25790 | 30231 ft | 395 kts | 333° |
| 2026-04-30 09:45 | 47.41972 | 5.23826 | 29835 ft | 393 kts | 334° |
| 2026-04-30 09:45 | 47.44357 | 5.21870 | 29449 ft | 391 kts | 334° |
| 2026-04-30 09:45 | 47.46719 | 5.19929 | 29045 ft | 389 kts | 334° |
| 2026-04-30 09:45 | 47.49091 | 5.17979 | 28649 ft | 387 kts | 334° |
| 2026-04-30 09:46 | 47.51443 | 5.16043 | 28257 ft | 385 kts | 334° |
| 2026-04-30 09:46 | 47.53780 | 5.14120 | 27864 ft | 384 kts | 334° |
| 2026-04-30 09:46 | 47.56105 | 5.12206 | 27475 ft | 382 kts | 334° |
| 2026-04-30 09:46 | 47.58395 | 5.10217 | 27075 ft | 381 kts | 330° |
| 2026-04-30 09:47 | 47.60540 | 5.07908 | 26693 ft | 381 kts | 324° |
| 2026-04-30 09:47 | 47.62576 | 5.05398 | 26311 ft | 380 kts | 322° |
| 2026-04-30 09:47 | 47.64572 | 5.02835 | 25913 ft | 379 kts | 322° |
| 2026-04-30 09:47 | 47.66567 | 5.00297 | 25527 ft | 377 kts | 323° |
| 2026-04-30 09:48 | 47.68558 | 4.97776 | 25151 ft | 375 kts | 323° |
| 2026-04-30 09:48 | 47.70535 | 4.95276 | 24769 ft | 373 kts | 323° |
| 2026-04-30 09:48 | 47.72512 | 4.92778 | 24371 ft | 372 kts | 323° |
| 2026-04-30 09:48 | 47.74470 | 4.90296 | 24002 ft | 370 kts | 323° |
| 2026-04-30 09:49 | 47.76431 | 4.87823 | 23598 ft | 369 kts | 323° |
| 2026-04-30 09:49 | 47.78385 | 4.85354 | 23195 ft | 368 kts | 323° |
| 2026-04-30 09:49 | 47.80333 | 4.82887 | 22792 ft | 367 kts | 323° |
| 2026-04-30 09:49 | 47.82250 | 4.80454 | 22394 ft | 366 kts | 322° |
| 2026-04-30 09:50 | 47.84189 | 4.77992 | 21989 ft | 365 kts | 322° |
| 2026-04-30 09:50 | 47.86116 | 4.75541 | 21587 ft | 364 kts | 322° |
| 2026-04-30 09:50 | 47.88046 | 4.73086 | 21184 ft | 363 kts | 322° |
| 2026-04-30 09:50 | 47.89980 | 4.70663 | 20783 ft | 362 kts | 323° |
| 2026-04-30 09:51 | 47.91906 | 4.68258 | 20384 ft | 361 kts | 323° |
| 2026-04-30 09:51 | 47.93824 | 4.65839 | 19984 ft | 360 kts | 322° |
| 2026-04-30 09:51 | 47.95731 | 4.63415 | 19586 ft | 359 kts | 322° |
| 2026-04-30 09:51 | 47.97628 | 4.60994 | 19189 ft | 358 kts | 322° |
| 2026-04-30 09:52 | 47.98711 | 4.59608 | 18962 ft | 358 kts | 322° |
| 2026-04-30 09:52 | 48.00599 | 4.57189 | 18566 ft | 357 kts | 322° |
| 2026-04-30 09:52 | 48.01768 | 4.55688 | 18322 ft | 356 kts | 322° |
| 2026-04-30 09:52 | 48.03584 | 4.53357 | 17941 ft | 355 kts | 321° |
| 2026-04-30 09:53 | 48.05455 | 4.50951 | 17548 ft | 354 kts | 321° |
| 2026-04-30 09:53 | 48.07320 | 4.48551 | 17156 ft | 353 kts | 321° |
| 2026-04-30 09:53 | 48.09177 | 4.46163 | 16766 ft | 352 kts | 321° |
| 2026-04-30 09:53 | 48.11032 | 4.43778 | 16376 ft | 351 kts | 321° |
| 2026-04-30 09:54 | 48.12901 | 4.41450 | 15989 ft | 349 kts | 325° |
| 2026-04-30 09:54 | 48.14901 | 4.39433 | 15603 ft | 346 kts | 332° |
| 2026-04-30 09:54 | 48.16990 | 4.37726 | 15224 ft | 343 kts | 335° |
| 2026-04-30 09:54 | 48.19129 | 4.36100 | 14841 ft | 342 kts | 335° |
| 2026-04-30 09:55 | 48.21234 | 4.34464 | 14503 ft | 339 kts | 334° |
| 2026-04-30 09:55 | 48.23310 | 4.32822 | 14123 ft | 338 kts | 334° |
| 2026-04-30 09:55 | 48.25380 | 4.31173 | 13765 ft | 336 kts | 334° |
| 2026-04-30 09:55 | 48.27441 | 4.29525 | 13367 ft | 335 kts | 334° |
| 2026-04-30 09:56 | 48.29494 | 4.27880 | 12985 ft | 334 kts | 334° |
| 2026-04-30 09:56 | 48.31539 | 4.26244 | 12610 ft | 332 kts | 334° |
| 2026-04-30 09:56 | 48.33572 | 4.24612 | 12321 ft | 328 kts | 333° |
| 2026-04-30 09:56 | 48.35551 | 4.23013 | 12237 ft | 318 kts | 333° |
| 2026-04-30 09:57 | 48.37452 | 4.21464 | 12205 ft | 311 kts | 333° |
| 2026-04-30 09:57 | 48.39334 | 4.19923 | 12202 ft | 305 kts | 333° |
| 2026-04-30 09:57 | 48.41194 | 4.18395 | 12205 ft | 305 kts | 333° |
| 2026-04-30 09:57 | 48.43062 | 4.16857 | 12206 ft | 307 kts | 333° |
| 2026-04-30 09:58 | 48.44953 | 4.15298 | 12207 ft | 310 kts | 333° |
| 2026-04-30 09:58 | 48.46843 | 4.13737 | 12206 ft | 310 kts | 333° |
| 2026-04-30 09:58 | 48.48732 | 4.12177 | 12208 ft | 310 kts | 333° |
| 2026-04-30 09:58 | 48.50620 | 4.10617 | 12209 ft | 310 kts | 333° |
| 2026-04-30 09:59 | 48.54398 | 4.07496 | 12212 ft | 310 kts | 333° |
| 2026-04-30 09:59 | 48.58184 | 4.04369 | 12215 ft | 310 kts | 333° |
| 2026-04-30 10:00 | 48.61961 | 4.01241 | 12219 ft | 310 kts | 333° |
| 2026-04-30 10:00 | 48.63855 | 3.99663 | 12221 ft | 311 kts | 333° |
| 2026-04-30 10:01 | 48.67650 | 3.96504 | 12222 ft | 311 kts | 333° |
| 2026-04-30 10:01 | 48.69546 | 3.94925 | 12223 ft | 311 kts | 333° |
| 2026-04-30 10:01 | 48.71439 | 3.93344 | 12223 ft | 311 kts | 333° |
| 2026-04-30 10:02 | 48.75202 | 3.90211 | 12223 ft | 308 kts | 333° |
| 2026-04-30 10:02 | 48.77059 | 3.88663 | 12221 ft | 301 kts | 333° |
| 2026-04-30 10:02 | 48.78860 | 3.87158 | 12215 ft | 290 kts | 333° |
| 2026-04-30 10:02 | 48.80631 | 3.85826 | 12208 ft | 277 kts | 338° |
| 2026-04-30 10:03 | 48.82368 | 3.84687 | 12179 ft | 267 kts | 340° |
| 2026-04-30 10:03 | 48.84087 | 3.83616 | 11806 ft | 271 kts | 340° |
| 2026-04-30 10:03 | 48.85878 | 3.82483 | 11180 ft | 286 kts | 339° |
| 2026-04-30 10:03 | 48.87675 | 3.81042 | 10723 ft | 300 kts | 324° |
| 2026-04-30 10:04 | 48.89168 | 3.78779 | 10477 ft | 305 kts | 310° |
| 2026-04-30 10:04 | 48.90357 | 3.76082 | 10233 ft | 309 kts | 303° |
| 2026-04-30 10:04 | 48.91509 | 3.73312 | 9980 ft | 311 kts | 303° |
| 2026-04-30 10:04 | 48.92654 | 3.70518 | 9733 ft | 311 kts | 302° |
| 2026-04-30 10:05 | 48.93793 | 3.67740 | 9482 ft | 308 kts | 302° |
| 2026-04-30 10:05 | 48.94915 | 3.64986 | 9229 ft | 304 kts | 302° |
| 2026-04-30 10:05 | 48.96011 | 3.62302 | 8980 ft | 301 kts | 302° |
| 2026-04-30 10:05 | 48.97106 | 3.59607 | 8728 ft | 297 kts | 302° |
| 2026-04-30 10:06 | 48.98191 | 3.56939 | 8478 ft | 295 kts | 302° |
| 2026-04-30 10:06 | 48.99280 | 3.54260 | 8227 ft | 297 kts | 302° |
| 2026-04-30 10:06 | 49.00364 | 3.51597 | 7977 ft | 295 kts | 302° |
| 2026-04-30 10:06 | 49.01438 | 3.48951 | 7726 ft | 292 kts | 302° |
| 2026-04-30 10:07 | 49.02499 | 3.46332 | 7477 ft | 290 kts | 302° |
| 2026-04-30 10:07 | 49.03562 | 3.43709 | 7226 ft | 292 kts | 302° |
| 2026-04-30 10:07 | 49.04628 | 3.41069 | 6976 ft | 292 kts | 302° |
| 2026-04-30 10:07 | 49.05689 | 3.38441 | 6725 ft | 290 kts | 302° |
| 2026-04-30 10:08 | 49.06743 | 3.35833 | 6478 ft | 288 kts | 302° |
| 2026-04-30 10:08 | 49.07796 | 3.33248 | 6222 ft | 286 kts | 303° |
| 2026-04-30 10:08 | 49.08861 | 3.30694 | 5975 ft | 285 kts | 303° |
| 2026-04-30 10:08 | 49.09918 | 3.28140 | 5723 ft | 285 kts | 303° |
| 2026-04-30 10:09 | 49.10966 | 3.25592 | 5472 ft | 282 kts | 302° |
| 2026-04-30 10:09 | 49.12004 | 3.23048 | 5224 ft | 284 kts | 302° |
| 2026-04-30 10:09 | 49.12825 | 3.21045 | 5027 ft | 284 kts | 302° |
| 2026-04-30 10:09 | 49.13889 | 3.18429 | 4773 ft | 283 kts | 302° |
| 2026-04-30 10:10 | 49.14925 | 3.15863 | 4522 ft | 282 kts | 302° |
| 2026-04-30 10:10 | 49.15953 | 3.13322 | 4272 ft | 281 kts | 303° |
| 2026-04-30 10:10 | 49.16950 | 3.10752 | 4018 ft | 281 kts | 297° |
| 2026-04-30 10:10 | 49.17716 | 3.08004 | 3771 ft | 281 kts | 293° |
| 2026-04-30 10:11 | 49.18432 | 3.05285 | 3525 ft | 279 kts | 292° |
| 2026-04-30 10:11 | 49.19142 | 3.02556 | 3275 ft | 277 kts | 292° |
| 2026-04-30 10:11 | 49.19842 | 2.99834 | 3039 ft | 276 kts | 292° |
| 2026-04-30 10:11 | 49.20548 | 2.97131 | 2983 ft | 272 kts | 292° |
| 2026-04-30 10:12 | 49.21244 | 2.94442 | 2978 ft | 272 kts | 292° |
| 2026-04-30 10:12 | 49.21936 | 2.91757 | 2979 ft | 271 kts | 292° |
| 2026-04-30 10:12 | 49.22632 | 2.89053 | 2991 ft | 275 kts | 292° |
| 2026-04-30 10:12 | 49.23104 | 2.87221 | 2987 ft | 275 kts | 292° |
| 2026-04-30 10:13 | 49.23742 | 2.84750 | 2986 ft | 275 kts | 292° |
| 2026-04-30 10:13 | 49.24219 | 2.82909 | 2986 ft | 280 kts | 292° |
| 2026-04-30 10:13 | 49.24960 | 2.80011 | 2986 ft | 281 kts | 292° |
| 2026-04-30 10:13 | 49.25675 | 2.77230 | 2976 ft | 281 kts | 292° |
| 2026-04-30 10:14 | 49.26388 | 2.74458 | 2976 ft | 279 kts | 292° |
| 2026-04-30 10:14 | 49.27116 | 2.71722 | 2976 ft | 276 kts | 293° |
| 2026-04-30 10:14 | 49.28254 | 2.67517 | 2980 ft | 274 kts | 292° |
| 2026-04-30 10:15 | 49.28970 | 2.64803 | 2976 ft | 275 kts | 292° |
| 2026-04-30 10:15 | 49.29678 | 2.62082 | 2977 ft | 274 kts | 292° |
| 2026-04-30 10:15 | 49.30603 | 2.58476 | 2978 ft | 275 kts | 291° |
| 2026-04-30 10:15 | 49.31077 | 2.56623 | 2980 ft | 277 kts | 291° |
| 2026-04-30 10:16 | 49.31776 | 2.53877 | 2982 ft | 277 kts | 291° |
| 2026-04-30 10:16 | 49.32389 | 2.51467 | 2984 ft | 281 kts | 291° |
| 2026-04-30 10:16 | 49.33090 | 2.48718 | 2980 ft | 280 kts | 291° |